sensor_id;sensor_type;location;lat;lon;timestamp;P1;durP1;ratioP1;P2;durP2;ratioP2
40176;SDS011;31511;46.176;9.874;2022-11-18T00:01:28;10.48;;;7.88;;
40176;SDS011;31511;46.176;9.874;2022-11-18T00:03:54;9.57;;;7.50;;
40176;SDS011;31511;46.176;9.874;2022-11-18T00:06:21;14.80;;;7.63;;
40176;SDS011;31511;46.176;9.874;2022-11-18T00:08:48;9.95;;;7.78;;
40176;SDS011;31511;46.176;9.874;2022-11-18T00:11:16;9.02;;;6.72;;
40176;SDS011;31511;46.176;9.874;2022-11-18T00:14:01;11.57;;;7.32;;
40176;SDS011;31511;46.176;9.874;2022-11-18T00:16:43;17.30;;;8.10;;
40176;SDS011;31511;46.176;9.874;2022-11-18T00:19:09;12.05;;;8.88;;
40176;SDS011;31511;46.176;9.874;2022-11-18T00:21:35;13.38;;;7.72;;
40176;SDS011;31511;46.176;9.874;2022-11-18T00:24:01;13.02;;;9.20;;
40176;SDS011;31511;46.176;9.874;2022-11-18T00:26:27;9.93;;;8.02;;
40176;SDS011;31511;46.176;9.874;2022-11-18T00:28:54;11.43;;;7.85;;
40176;SDS011;31511;46.176;9.874;2022-11-18T00:31:20;10.18;;;8.02;;
40176;SDS011;31511;46.176;9.874;2022-11-18T00:33:46;10.68;;;7.35;;
40176;SDS011;31511;46.176;9.874;2022-11-18T00:36:12;9.75;;;7.88;;
40176;SDS011;31511;46.176;9.874;2022-11-18T00:38:38;11.02;;;8.05;;
40176;SDS011;31511;46.176;9.874;2022-11-18T00:41:09;11.10;;;7.97;;
40176;SDS011;31511;46.176;9.874;2022-11-18T00:43:35;12.98;;;7.80;;
40176;SDS011;31511;46.176;9.874;2022-11-18T00:46:02;15.88;;;9.38;;
40176;SDS011;31511;46.176;9.874;2022-11-18T00:48:29;12.52;;;8.88;;
40176;SDS011;31511;46.176;9.874;2022-11-18T00:50:56;14.80;;;8.80;;
40176;SDS011;31511;46.176;9.874;2022-11-18T00:53:23;14.75;;;8.63;;
40176;SDS011;31511;46.176;9.874;2022-11-18T00:55:49;13.57;;;8.18;;
40176;SDS011;31511;46.176;9.874;2022-11-18T00:58:15;14.80;;;9.43;;
40176;SDS011;31511;46.176;9.874;2022-11-18T01:00:42;12.23;;;8.38;;
40176;SDS011;31511;46.176;9.874;2022-11-18T01:03:10;10.23;;;8.07;;
40176;SDS011;31511;46.176;9.874;2022-11-18T01:05:36;11.30;;;8.38;;
40176;SDS011;31511;46.176;9.874;2022-11-18T01:08:03;10.38;;;7.70;;
40176;SDS011;31511;46.176;9.874;2022-11-18T01:10:29;11.50;;;7.07;;
40176;SDS011;31511;46.176;9.874;2022-11-18T01:12:55;13.63;;;7.53;;
40176;SDS011;31511;46.176;9.874;2022-11-18T01:18:06;29.48;;;9.13;;
40176;SDS011;31511;46.176;9.874;2022-11-18T01:20:32;11.00;;;7.40;;
40176;SDS011;31511;46.176;9.874;2022-11-18T01:22:58;12.48;;;7.32;;
40176;SDS011;31511;46.176;9.874;2022-11-18T01:25:24;10.65;;;6.90;;
40176;SDS011;31511;46.176;9.874;2022-11-18T01:27:50;12.00;;;8.60;;
40176;SDS011;31511;46.176;9.874;2022-11-18T01:30:18;16.70;;;9.50;;
40176;SDS011;31511;46.176;9.874;2022-11-18T01:32:44;12.68;;;8.70;;
40176;SDS011;31511;46.176;9.874;2022-11-18T01:35:10;16.98;;;9.38;;
40176;SDS011;31511;46.176;9.874;2022-11-18T01:37:37;14.32;;;9.38;;
40176;SDS011;31511;46.176;9.874;2022-11-18T01:40:04;14.20;;;9.10;;
40176;SDS011;31511;46.176;9.874;2022-11-18T01:42:30;11.32;;;8.57;;
40176;SDS011;31511;46.176;9.874;2022-11-18T01:45:00;13.25;;;9.40;;
40176;SDS011;31511;46.176;9.874;2022-11-18T01:47:32;11.73;;;8.10;;
40176;SDS011;31511;46.176;9.874;2022-11-18T01:50:00;13.10;;;8.52;;
40176;SDS011;31511;46.176;9.874;2022-11-18T01:52:26;13.80;;;8.23;;
40176;SDS011;31511;46.176;9.874;2022-11-18T01:54:54;10.32;;;8.10;;
40176;SDS011;31511;46.176;9.874;2022-11-18T01:57:21;10.75;;;7.75;;
40176;SDS011;31511;46.176;9.874;2022-11-18T01:59:49;12.25;;;8.25;;
40176;SDS011;31511;46.176;9.874;2022-11-18T02:02:18;11.07;;;8.10;;
40176;SDS011;31511;46.176;9.874;2022-11-18T02:04:47;9.55;;;7.70;;
40176;SDS011;31511;46.176;9.874;2022-11-18T02:07:13;12.70;;;8.57;;
40176;SDS011;31511;46.176;9.874;2022-11-18T02:09:39;14.52;;;9.57;;
40176;SDS011;31511;46.176;9.874;2022-11-18T02:12:05;14.35;;;8.48;;
40176;SDS011;31511;46.176;9.874;2022-11-18T02:14:33;11.02;;;8.18;;
40176;SDS011;31511;46.176;9.874;2022-11-18T02:22:18;11.40;;;7.93;;
40176;SDS011;31511;46.176;9.874;2022-11-18T02:25:07;17.25;;;8.77;;
40176;SDS011;31511;46.176;9.874;2022-11-18T02:30:11;14.27;;;9.27;;
40176;SDS011;31511;46.176;9.874;2022-11-18T02:32:40;12.55;;;8.90;;
40176;SDS011;31511;46.176;9.874;2022-11-18T02:37:39;14.32;;;8.00;;
40176;SDS011;31511;46.176;9.874;2022-11-18T02:40:10;14.05;;;7.78;;
40176;SDS011;31511;46.176;9.874;2022-11-18T02:42:38;16.25;;;8.80;;
40176;SDS011;31511;46.176;9.874;2022-11-18T02:45:05;12.50;;;8.43;;
40176;SDS011;31511;46.176;9.874;2022-11-18T02:47:33;11.30;;;8.05;;
40176;SDS011;31511;46.176;9.874;2022-11-18T02:50:02;12.57;;;9.88;;
40176;SDS011;31511;46.176;9.874;2022-11-18T02:52:30;11.00;;;7.40;;
40176;SDS011;31511;46.176;9.874;2022-11-18T02:54:57;12.23;;;7.88;;
40176;SDS011;31511;46.176;9.874;2022-11-18T02:57:25;10.68;;;7.57;;
40176;SDS011;31511;46.176;9.874;2022-11-18T02:59:54;8.80;;;7.15;;
40176;SDS011;31511;46.176;9.874;2022-11-18T03:02:20;11.73;;;7.78;;
40176;SDS011;31511;46.176;9.874;2022-11-18T03:04:47;10.13;;;7.47;;
40176;SDS011;31511;46.176;9.874;2022-11-18T03:07:18;9.10;;;6.95;;
40176;SDS011;31511;46.176;9.874;2022-11-18T03:09:46;10.85;;;8.27;;
40176;SDS011;31511;46.176;9.874;2022-11-18T03:22:32;10.50;;;7.68;;
40176;SDS011;31511;46.176;9.874;2022-11-18T03:25:05;11.35;;;7.25;;
40176;SDS011;31511;46.176;9.874;2022-11-18T03:27:45;9.05;;;7.07;;
40176;SDS011;31511;46.176;9.874;2022-11-18T03:30:16;12.38;;;7.20;;
40176;SDS011;31511;46.176;9.874;2022-11-18T03:32:45;11.10;;;8.50;;
40176;SDS011;31511;46.176;9.874;2022-11-18T03:35:19;11.07;;;8.32;;
40176;SDS011;31511;46.176;9.874;2022-11-18T03:37:46;11.25;;;7.78;;
40176;SDS011;31511;46.176;9.874;2022-11-18T03:40:19;9.25;;;7.55;;
40176;SDS011;31511;46.176;9.874;2022-11-18T03:42:50;15.30;;;7.47;;
40176;SDS011;31511;46.176;9.874;2022-11-18T03:45:22;10.65;;;7.82;;
40176;SDS011;31511;46.176;9.874;2022-11-18T03:47:52;10.75;;;7.13;;
40176;SDS011;31511;46.176;9.874;2022-11-18T03:50:25;9.88;;;7.13;;
40176;SDS011;31511;46.176;9.874;2022-11-18T03:52:51;9.85;;;6.55;;
40176;SDS011;31511;46.176;9.874;2022-11-18T03:55:19;9.38;;;6.80;;
40176;SDS011;31511;46.176;9.874;2022-11-18T03:57:52;9.82;;;6.72;;
40176;SDS011;31511;46.176;9.874;2022-11-18T04:00:19;7.68;;;6.38;;
40176;SDS011;31511;46.176;9.874;2022-11-18T04:02:45;10.57;;;5.43;;
40176;SDS011;31511;46.176;9.874;2022-11-18T04:05:12;13.60;;;6.18;;
40176;SDS011;31511;46.176;9.874;2022-11-18T04:07:55;13.27;;;6.30;;
40176;SDS011;31511;46.176;9.874;2022-11-18T04:10:29;7.95;;;6.10;;
40176;SDS011;31511;46.176;9.874;2022-11-18T04:15:23;11.63;;;6.82;;
40176;SDS011;31511;46.176;9.874;2022-11-18T04:17:49;8.38;;;5.78;;
40176;SDS011;31511;46.176;9.874;2022-11-18T04:20:17;9.23;;;7.00;;
40176;SDS011;31511;46.176;9.874;2022-11-18T04:22:43;11.32;;;7.07;;
40176;SDS011;31511;46.176;9.874;2022-11-18T04:25:09;9.05;;;6.72;;
40176;SDS011;31511;46.176;9.874;2022-11-18T04:27:35;9.20;;;5.80;;
40176;SDS011;31511;46.176;9.874;2022-11-18T04:30:01;7.15;;;5.63;;
40176;SDS011;31511;46.176;9.874;2022-11-18T04:32:27;9.05;;;5.13;;
40176;SDS011;31511;46.176;9.874;2022-11-18T04:34:53;6.45;;;5.35;;
40176;SDS011;31511;46.176;9.874;2022-11-18T04:37:19;9.80;;;6.72;;
40176;SDS011;31511;46.176;9.874;2022-11-18T04:39:46;8.85;;;5.85;;
40176;SDS011;31511;46.176;9.874;2022-11-18T04:42:11;9.38;;;6.15;;
40176;SDS011;31511;46.176;9.874;2022-11-18T04:44:37;8.38;;;6.32;;
40176;SDS011;31511;46.176;9.874;2022-11-18T04:47:04;8.40;;;6.15;;
40176;SDS011;31511;46.176;9.874;2022-11-18T04:49:31;8.43;;;5.55;;
40176;SDS011;31511;46.176;9.874;2022-11-18T04:51:57;10.93;;;6.13;;
40176;SDS011;31511;46.176;9.874;2022-11-18T04:54:24;7.57;;;5.53;;
40176;SDS011;31511;46.176;9.874;2022-11-18T04:56:50;6.78;;;5.25;;
40176;SDS011;31511;46.176;9.874;2022-11-18T04:59:18;11.45;;;5.20;;
40176;SDS011;31511;46.176;9.874;2022-11-18T05:01:44;6.32;;;5.22;;
40176;SDS011;31511;46.176;9.874;2022-11-18T05:04:12;9.77;;;5.85;;
40176;SDS011;31511;46.176;9.874;2022-11-18T05:06:38;8.30;;;6.07;;
40176;SDS011;31511;46.176;9.874;2022-11-18T05:09:05;7.07;;;5.60;;
40176;SDS011;31511;46.176;9.874;2022-11-18T05:11:31;8.18;;;6.03;;
40176;SDS011;31511;46.176;9.874;2022-11-18T05:14:16;7.70;;;5.20;;
40176;SDS011;31511;46.176;9.874;2022-11-18T05:16:42;7.63;;;5.32;;
40176;SDS011;31511;46.176;9.874;2022-11-18T05:19:09;8.18;;;5.60;;
40176;SDS011;31511;46.176;9.874;2022-11-18T05:21:35;8.70;;;5.60;;
40176;SDS011;31511;46.176;9.874;2022-11-18T05:24:01;7.35;;;5.65;;
40176;SDS011;31511;46.176;9.874;2022-11-18T05:26:28;7.88;;;5.60;;
40176;SDS011;31511;46.176;9.874;2022-11-18T05:28:54;8.20;;;6.50;;
40176;SDS011;31511;46.176;9.874;2022-11-18T05:31:20;5.85;;;5.07;;
40176;SDS011;31511;46.176;9.874;2022-11-18T05:33:46;6.43;;;5.65;;
40176;SDS011;31511;46.176;9.874;2022-11-18T05:36:15;8.27;;;5.68;;
40176;SDS011;31511;46.176;9.874;2022-11-18T05:38:42;7.60;;;5.60;;
40176;SDS011;31511;46.176;9.874;2022-11-18T05:41:08;8.10;;;6.07;;
40176;SDS011;31511;46.176;9.874;2022-11-18T05:43:35;11.45;;;6.68;;
40176;SDS011;31511;46.176;9.874;2022-11-18T05:46:02;11.63;;;6.45;;
40176;SDS011;31511;46.176;9.874;2022-11-18T05:48:28;9.27;;;6.35;;
40176;SDS011;31511;46.176;9.874;2022-11-18T05:50:54;10.90;;;6.35;;
40176;SDS011;31511;46.176;9.874;2022-11-18T05:53:23;10.50;;;6.15;;
40176;SDS011;31511;46.176;9.874;2022-11-18T05:55:57;9.05;;;6.13;;
40176;SDS011;31511;46.176;9.874;2022-11-18T05:58:25;10.90;;;7.35;;
40176;SDS011;31511;46.176;9.874;2022-11-18T06:00:53;10.27;;;7.55;;
40176;SDS011;31511;46.176;9.874;2022-11-18T06:03:21;15.32;;;7.40;;
40176;SDS011;31511;46.176;9.874;2022-11-18T06:05:49;10.20;;;7.32;;
40176;SDS011;31511;46.176;9.874;2022-11-18T06:08:18;9.57;;;5.95;;
40176;SDS011;31511;46.176;9.874;2022-11-18T06:10:45;8.88;;;6.28;;
40176;SDS011;31511;46.176;9.874;2022-11-18T06:13:14;8.63;;;6.65;;
40176;SDS011;31511;46.176;9.874;2022-11-18T06:15:41;12.35;;;7.20;;
40176;SDS011;31511;46.176;9.874;2022-11-18T06:18:09;9.57;;;7.30;;
40176;SDS011;31511;46.176;9.874;2022-11-18T06:20:36;14.00;;;7.90;;
40176;SDS011;31511;46.176;9.874;2022-11-18T06:23:03;11.15;;;7.03;;
40176;SDS011;31511;46.176;9.874;2022-11-18T06:25:29;10.10;;;6.05;;
40176;SDS011;31511;46.176;9.874;2022-11-18T06:27:56;13.32;;;7.40;;
40176;SDS011;31511;46.176;9.874;2022-11-18T06:30:23;8.93;;;6.47;;
40176;SDS011;31511;46.176;9.874;2022-11-18T06:32:49;8.73;;;6.80;;
40176;SDS011;31511;46.176;9.874;2022-11-18T06:35:15;10.85;;;6.15;;
40176;SDS011;31511;46.176;9.874;2022-11-18T06:37:41;9.95;;;6.38;;
40176;SDS011;31511;46.176;9.874;2022-11-18T06:40:08;8.15;;;6.10;;
40176;SDS011;31511;46.176;9.874;2022-11-18T06:42:34;11.75;;;6.03;;
40176;SDS011;31511;46.176;9.874;2022-11-18T06:47:44;10.68;;;7.28;;
40176;SDS011;31511;46.176;9.874;2022-11-18T06:50:11;11.30;;;7.43;;
40176;SDS011;31511;46.176;9.874;2022-11-18T06:52:37;9.70;;;8.15;;
40176;SDS011;31511;46.176;9.874;2022-11-18T06:55:03;11.05;;;7.22;;
40176;SDS011;31511;46.176;9.874;2022-11-18T06:57:32;16.15;;;7.07;;
40176;SDS011;31511;46.176;9.874;2022-11-18T06:59:58;12.07;;;6.82;;
40176;SDS011;31511;46.176;9.874;2022-11-18T07:02:24;22.23;;;7.57;;
40176;SDS011;31511;46.176;9.874;2022-11-18T07:04:50;8.55;;;6.28;;
40176;SDS011;31511;46.176;9.874;2022-11-18T07:07:16;9.10;;;5.70;;
40176;SDS011;31511;46.176;9.874;2022-11-18T07:09:42;10.32;;;5.72;;
40176;SDS011;31511;46.176;9.874;2022-11-18T07:12:08;25.45;;;10.40;;
40176;SDS011;31511;46.176;9.874;2022-11-18T07:14:34;7.95;;;6.50;;
40176;SDS011;31511;46.176;9.874;2022-11-18T07:17:00;6.90;;;5.35;;
40176;SDS011;31511;46.176;9.874;2022-11-18T07:19:26;6.47;;;4.55;;
40176;SDS011;31511;46.176;9.874;2022-11-18T07:21:52;6.15;;;4.47;;
40176;SDS011;31511;46.176;9.874;2022-11-18T07:24:18;10.43;;;5.95;;
40176;SDS011;31511;46.176;9.874;2022-11-18T07:26:44;10.07;;;8.43;;
40176;SDS011;31511;46.176;9.874;2022-11-18T07:29:11;10.98;;;7.30;;
40176;SDS011;31511;46.176;9.874;2022-11-18T07:31:37;9.20;;;6.10;;
40176;SDS011;31511;46.176;9.874;2022-11-18T07:34:04;8.65;;;6.65;;
40176;SDS011;31511;46.176;9.874;2022-11-18T07:36:30;8.93;;;6.10;;
40176;SDS011;31511;46.176;9.874;2022-11-18T07:38:59;14.88;;;8.38;;
40176;SDS011;31511;46.176;9.874;2022-11-18T07:41:26;10.38;;;7.70;;
40176;SDS011;31511;46.176;9.874;2022-11-18T07:43:53;10.23;;;8.27;;
40176;SDS011;31511;46.176;9.874;2022-11-18T07:48:45;14.07;;;8.70;;
40176;SDS011;31511;46.176;9.874;2022-11-18T07:51:12;11.50;;;9.07;;
40176;SDS011;31511;46.176;9.874;2022-11-18T07:53:38;13.48;;;9.10;;
40176;SDS011;31511;46.176;9.874;2022-11-18T07:56:05;11.65;;;7.97;;
40176;SDS011;31511;46.176;9.874;2022-11-18T07:58:31;11.10;;;8.07;;
40176;SDS011;31511;46.176;9.874;2022-11-18T08:00:58;11.50;;;8.07;;
40176;SDS011;31511;46.176;9.874;2022-11-18T08:03:24;14.93;;;7.40;;
40176;SDS011;31511;46.176;9.874;2022-11-18T08:05:51;13.65;;;6.53;;
40176;SDS011;31511;46.176;9.874;2022-11-18T08:08:17;11.25;;;6.63;;
40176;SDS011;31511;46.176;9.874;2022-11-18T08:10:43;8.52;;;6.07;;
40176;SDS011;31511;46.176;9.874;2022-11-18T08:13:09;8.57;;;5.40;;
40176;SDS011;31511;46.176;9.874;2022-11-18T08:15:40;6.80;;;5.03;;
40176;SDS011;31511;46.176;9.874;2022-11-18T08:18:06;10.48;;;6.63;;
40176;SDS011;31511;46.176;9.874;2022-11-18T08:20:33;9.25;;;6.15;;
40176;SDS011;31511;46.176;9.874;2022-11-18T08:23:00;8.32;;;6.63;;
40176;SDS011;31511;46.176;9.874;2022-11-18T08:25:27;10.35;;;7.18;;
40176;SDS011;31511;46.176;9.874;2022-11-18T08:27:54;8.02;;;6.13;;
40176;SDS011;31511;46.176;9.874;2022-11-18T08:30:21;7.03;;;5.57;;
40176;SDS011;31511;46.176;9.874;2022-11-18T08:32:47;9.55;;;6.30;;
40176;SDS011;31511;46.176;9.874;2022-11-18T08:35:13;10.65;;;6.80;;
40176;SDS011;31511;46.176;9.874;2022-11-18T08:37:39;9.63;;;7.03;;
40176;SDS011;31511;46.176;9.874;2022-11-18T08:40:05;10.68;;;7.53;;
40176;SDS011;31511;46.176;9.874;2022-11-18T08:42:31;10.63;;;7.93;;
40176;SDS011;31511;46.176;9.874;2022-11-18T08:44:57;15.20;;;9.48;;
40176;SDS011;31511;46.176;9.874;2022-11-18T08:47:23;15.80;;;9.35;;
40176;SDS011;31511;46.176;9.874;2022-11-18T08:49:49;13.73;;;8.50;;
40176;SDS011;31511;46.176;9.874;2022-11-18T08:52:15;12.25;;;8.43;;
40176;SDS011;31511;46.176;9.874;2022-11-18T08:54:41;7.78;;;6.80;;
40176;SDS011;31511;46.176;9.874;2022-11-18T08:57:07;10.48;;;6.90;;
40176;SDS011;31511;46.176;9.874;2022-11-18T08:59:34;10.88;;;7.57;;
40176;SDS011;31511;46.176;9.874;2022-11-18T09:02:00;12.23;;;7.28;;
40176;SDS011;31511;46.176;9.874;2022-11-18T09:04:26;9.20;;;6.78;;
40176;SDS011;31511;46.176;9.874;2022-11-18T09:06:52;12.13;;;6.75;;
40176;SDS011;31511;46.176;9.874;2022-11-18T09:09:18;7.97;;;6.22;;
40176;SDS011;31511;46.176;9.874;2022-11-18T09:11:44;12.10;;;8.70;;
40176;SDS011;31511;46.176;9.874;2022-11-18T09:14:10;12.15;;;8.20;;
40176;SDS011;31511;46.176;9.874;2022-11-18T09:16:36;13.38;;;8.43;;
40176;SDS011;31511;46.176;9.874;2022-11-18T09:19:03;15.68;;;11.25;;
40176;SDS011;31511;46.176;9.874;2022-11-18T09:21:29;12.07;;;8.52;;
40176;SDS011;31511;46.176;9.874;2022-11-18T09:23:56;13.30;;;7.45;;
40176;SDS011;31511;46.176;9.874;2022-11-18T09:26:22;7.57;;;4.80;;
40176;SDS011;31511;46.176;9.874;2022-11-18T09:28:51;6.63;;;5.15;;
40176;SDS011;31511;46.176;9.874;2022-11-18T09:31:17;6.50;;;5.72;;
40176;SDS011;31511;46.176;9.874;2022-11-18T09:33:43;8.48;;;5.82;;
40176;SDS011;31511;46.176;9.874;2022-11-18T09:36:11;10.43;;;6.53;;
40176;SDS011;31511;46.176;9.874;2022-11-18T09:38:37;9.82;;;6.50;;
40176;SDS011;31511;46.176;9.874;2022-11-18T09:46:28;9.68;;;6.90;;
40176;SDS011;31511;46.176;9.874;2022-11-18T09:49:09;9.15;;;7.85;;
40176;SDS011;31511;46.176;9.874;2022-11-18T09:51:40;10.65;;;6.95;;
40176;SDS011;31511;46.176;9.874;2022-11-18T09:54:08;9.02;;;6.93;;
40176;SDS011;31511;46.176;9.874;2022-11-18T09:56:35;12.13;;;8.48;;
40176;SDS011;31511;46.176;9.874;2022-11-18T09:59:02;10.73;;;7.57;;
40176;SDS011;31511;46.176;9.874;2022-11-18T10:01:28;8.75;;;7.35;;
40176;SDS011;31511;46.176;9.874;2022-11-18T10:03:55;11.80;;;7.80;;
40176;SDS011;31511;46.176;9.874;2022-11-18T10:11:14;10.55;;;8.40;;
40176;SDS011;31511;46.176;9.874;2022-11-18T10:13:50;14.15;;;6.20;;
40176;SDS011;31511;46.176;9.874;2022-11-18T10:16:31;6.70;;;4.85;;
40176;SDS011;31511;46.176;9.874;2022-11-18T10:19:21;12.55;;;5.63;;
40176;SDS011;31511;46.176;9.874;2022-11-18T10:21:54;8.10;;;5.75;;
40176;SDS011;31511;46.176;9.874;2022-11-18T10:24:23;5.40;;;4.40;;
40176;SDS011;31511;46.176;9.874;2022-11-18T10:26:57;5.78;;;4.70;;
40176;SDS011;31511;46.176;9.874;2022-11-18T10:29:24;9.68;;;4.22;;
40176;SDS011;31511;46.176;9.874;2022-11-18T10:32:00;6.38;;;4.93;;
40176;SDS011;31511;46.176;9.874;2022-11-18T10:34:26;7.97;;;4.60;;
40176;SDS011;31511;46.176;9.874;2022-11-18T10:37:03;6.95;;;4.47;;
40176;SDS011;31511;46.176;9.874;2022-11-18T10:39:29;6.40;;;5.13;;
40176;SDS011;31511;46.176;9.874;2022-11-18T10:41:58;7.38;;;4.97;;
40176;SDS011;31511;46.176;9.874;2022-11-18T10:44:32;5.55;;;4.47;;
40176;SDS011;31511;46.176;9.874;2022-11-18T10:49:40;6.80;;;3.90;;
40176;SDS011;31511;46.176;9.874;2022-11-18T10:54:34;6.43;;;3.30;;
40176;SDS011;31511;46.176;9.874;2022-11-18T11:04:36;9.05;;;3.38;;
40176;SDS011;31511;46.176;9.874;2022-11-18T11:10:30;2.97;;;2.40;;
40176;SDS011;31511;46.176;9.874;2022-11-18T11:12:38;3.80;;;2.72;;
40176;SDS011;31511;46.176;9.874;2022-11-18T11:15:53;5.85;;;2.90;;
40176;SDS011;31511;46.176;9.874;2022-11-18T11:18:01;7.07;;;2.67;;
40176;SDS011;31511;46.176;9.874;2022-11-18T11:20:46;2.50;;;1.98;;
40176;SDS011;31511;46.176;9.874;2022-11-18T11:23:13;5.57;;;2.80;;
40176;SDS011;31511;46.176;9.874;2022-11-18T11:28:27;3.13;;;2.08;;
40176;SDS011;31511;46.176;9.874;2022-11-18T11:31:01;3.67;;;2.10;;
40176;SDS011;31511;46.176;9.874;2022-11-18T11:41:23;3.97;;;2.28;;
40176;SDS011;31511;46.176;9.874;2022-11-18T11:51:30;1.52;;;1.00;;
40176;SDS011;31511;46.176;9.874;2022-11-18T11:54:01;1.77;;;1.27;;
40176;SDS011;31511;46.176;9.874;2022-11-18T11:56:46;1.65;;;1.23;;
40176;SDS011;31511;46.176;9.874;2022-11-18T12:06:56;2.03;;;1.42;;
40176;SDS011;31511;46.176;9.874;2022-11-18T12:12:17;1.23;;;1.10;;
40176;SDS011;31511;46.176;9.874;2022-11-18T12:15:05;1.75;;;1.10;;
40176;SDS011;31511;46.176;9.874;2022-11-18T12:17:42;2.97;;;1.92;;
40176;SDS011;31511;46.176;9.874;2022-11-18T12:23:08;3.05;;;1.25;;
40176;SDS011;31511;46.176;9.874;2022-11-18T12:25:43;2.25;;;1.50;;
40176;SDS011;31511;46.176;9.874;2022-11-18T12:33:51;1.30;;;1.10;;
40176;SDS011;31511;46.176;9.874;2022-11-18T12:38:51;1.55;;;1.10;;
40176;SDS011;31511;46.176;9.874;2022-11-18T12:44:24;2.15;;;1.10;;
40176;SDS011;31511;46.176;9.874;2022-11-18T12:46:51;2.28;;;1.05;;
40176;SDS011;31511;46.176;9.874;2022-11-18T12:51:57;2.75;;;1.35;;
40176;SDS011;31511;46.176;9.874;2022-11-18T12:56:49;1.02;;;0.93;;
40176;SDS011;31511;46.176;9.874;2022-11-18T12:59:16;2.17;;;1.65;;
40176;SDS011;31511;46.176;9.874;2022-11-18T13:02:00;4.00;;;1.30;;
40176;SDS011;31511;46.176;9.874;2022-11-18T13:04:26;1.70;;;0.90;;
40176;SDS011;31511;46.176;9.874;2022-11-18T13:06:52;3.55;;;1.13;;
40176;SDS011;31511;46.176;9.874;2022-11-18T13:09:21;1.52;;;0.88;;
40176;SDS011;31511;46.176;9.874;2022-11-18T13:11:49;1.73;;;0.90;;
40176;SDS011;31511;46.176;9.874;2022-11-18T13:17:01;3.40;;;1.13;;
40176;SDS011;31511;46.176;9.874;2022-11-18T13:19:56;1.45;;;0.90;;
40176;SDS011;31511;46.176;9.874;2022-11-18T13:22:22;4.40;;;1.20;;
40176;SDS011;31511;46.176;9.874;2022-11-18T13:25:25;4.97;;;1.73;;
40176;SDS011;31511;46.176;9.874;2022-11-18T13:27:54;4.70;;;1.40;;
40176;SDS011;31511;46.176;9.874;2022-11-18T13:30:23;1.98;;;1.10;;
40176;SDS011;31511;46.176;9.874;2022-11-18T13:32:49;3.90;;;1.52;;
40176;SDS011;31511;46.176;9.874;2022-11-18T13:35:17;4.85;;;1.60;;
40176;SDS011;31511;46.176;9.874;2022-11-18T13:37:50;3.75;;;1.45;;
40176;SDS011;31511;46.176;9.874;2022-11-18T13:40:18;1.27;;;0.80;;
40176;SDS011;31511;46.176;9.874;2022-11-18T13:42:44;1.30;;;0.90;;
40176;SDS011;31511;46.176;9.874;2022-11-18T13:45:11;2.03;;;1.10;;
40176;SDS011;31511;46.176;9.874;2022-11-18T13:47:48;1.30;;;0.75;;
40176;SDS011;31511;46.176;9.874;2022-11-18T13:55:19;4.43;;;2.05;;
40176;SDS011;31511;46.176;9.874;2022-11-18T13:57:47;4.15;;;1.30;;
40176;SDS011;31511;46.176;9.874;2022-11-18T14:00:24;1.20;;;0.98;;
40176;SDS011;31511;46.176;9.874;2022-11-18T14:03:34;2.85;;;0.80;;
40176;SDS011;31511;46.176;9.874;2022-11-18T14:05:40;1.85;;;0.95;;
40176;SDS011;31511;46.176;9.874;2022-11-18T14:08:17;1.77;;;0.95;;
40176;SDS011;31511;46.176;9.874;2022-11-18T14:10:44;3.88;;;1.35;;
40176;SDS011;31511;46.176;9.874;2022-11-18T14:13:15;5.07;;;1.58;;
40176;SDS011;31511;46.176;9.874;2022-11-18T14:15:41;4.90;;;2.03;;
40176;SDS011;31511;46.176;9.874;2022-11-18T14:18:18;3.45;;;1.15;;
40176;SDS011;31511;46.176;9.874;2022-11-18T14:20:49;4.30;;;1.45;;
40176;SDS011;31511;46.176;9.874;2022-11-18T14:23:15;2.60;;;1.20;;
40176;SDS011;31511;46.176;9.874;2022-11-18T14:25:42;2.70;;;1.60;;
40176;SDS011;31511;46.176;9.874;2022-11-18T14:28:21;4.25;;;2.42;;
40176;SDS011;31511;46.176;9.874;2022-11-18T14:31:33;3.17;;;1.85;;
40176;SDS011;31511;46.176;9.874;2022-11-18T14:33:34;3.35;;;1.50;;
40176;SDS011;31511;46.176;9.874;2022-11-18T14:36:07;2.08;;;1.20;;
40176;SDS011;31511;46.176;9.874;2022-11-18T14:41:01;1.83;;;1.10;;
40176;SDS011;31511;46.176;9.874;2022-11-18T14:43:28;2.97;;;1.40;;
40176;SDS011;31511;46.176;9.874;2022-11-18T14:45:58;6.35;;;1.30;;
40176;SDS011;31511;46.176;9.874;2022-11-18T14:48:26;3.88;;;1.05;;
40176;SDS011;31511;46.176;9.874;2022-11-18T14:50:52;3.97;;;2.03;;
40176;SDS011;31511;46.176;9.874;2022-11-18T14:53:19;3.42;;;2.40;;
40176;SDS011;31511;46.176;9.874;2022-11-18T14:55:46;2.03;;;1.45;;
40176;SDS011;31511;46.176;9.874;2022-11-18T14:58:13;4.43;;;1.40;;
40176;SDS011;31511;46.176;9.874;2022-11-18T15:00:48;5.80;;;1.80;;
40176;SDS011;31511;46.176;9.874;2022-11-18T15:03:15;2.78;;;1.48;;
40176;SDS011;31511;46.176;9.874;2022-11-18T15:05:41;1.90;;;1.25;;
40176;SDS011;31511;46.176;9.874;2022-11-18T15:08:07;3.33;;;1.63;;
40176;SDS011;31511;46.176;9.874;2022-11-18T15:10:33;3.75;;;1.85;;
40176;SDS011;31511;46.176;9.874;2022-11-18T15:12:59;3.20;;;1.83;;
40176;SDS011;31511;46.176;9.874;2022-11-18T15:15:26;2.38;;;1.38;;
40176;SDS011;31511;46.176;9.874;2022-11-18T15:17:52;9.48;;;3.17;;
40176;SDS011;31511;46.176;9.874;2022-11-18T15:20:18;12.45;;;6.35;;
40176;SDS011;31511;46.176;9.874;2022-11-18T15:22:45;14.85;;;7.38;;
40176;SDS011;31511;46.176;9.874;2022-11-18T15:25:11;7.95;;;5.07;;
40176;SDS011;31511;46.176;9.874;2022-11-18T15:27:37;9.68;;;4.47;;
40176;SDS011;31511;46.176;9.874;2022-11-18T15:30:04;8.98;;;3.92;;
40176;SDS011;31511;46.176;9.874;2022-11-18T15:32:30;6.95;;;3.97;;
40176;SDS011;31511;46.176;9.874;2022-11-18T15:34:56;8.35;;;3.05;;
40176;SDS011;31511;46.176;9.874;2022-11-18T15:37:22;5.82;;;2.95;;
40176;SDS011;31511;46.176;9.874;2022-11-18T15:39:48;4.85;;;2.78;;
40176;SDS011;31511;46.176;9.874;2022-11-18T15:42:17;12.65;;;2.80;;
40176;SDS011;31511;46.176;9.874;2022-11-18T15:44:44;7.95;;;2.80;;
40176;SDS011;31511;46.176;9.874;2022-11-18T15:47:10;5.93;;;3.42;;
40176;SDS011;31511;46.176;9.874;2022-11-18T15:49:36;8.32;;;3.28;;
40176;SDS011;31511;46.176;9.874;2022-11-18T15:52:08;3.70;;;2.80;;
40176;SDS011;31511;46.176;9.874;2022-11-18T15:54:34;6.15;;;2.33;;
40176;SDS011;31511;46.176;9.874;2022-11-18T15:57:01;3.17;;;2.33;;
40176;SDS011;31511;46.176;9.874;2022-11-18T15:59:27;12.80;;;7.38;;
40176;SDS011;31511;46.176;9.874;2022-11-18T16:01:53;10.07;;;4.85;;
40176;SDS011;31511;46.176;9.874;2022-11-18T16:04:20;8.35;;;5.25;;
40176;SDS011;31511;46.176;9.874;2022-11-18T16:06:46;9.05;;;4.68;;
40176;SDS011;31511;46.176;9.874;2022-11-18T16:09:13;4.05;;;3.05;;
40176;SDS011;31511;46.176;9.874;2022-11-18T16:11:39;6.57;;;4.22;;
40176;SDS011;31511;46.176;9.874;2022-11-18T16:14:24;5.18;;;2.97;;
40176;SDS011;31511;46.176;9.874;2022-11-18T16:16:51;7.25;;;3.78;;
40176;SDS011;31511;46.176;9.874;2022-11-18T16:19:18;6.82;;;3.83;;
40176;SDS011;31511;46.176;9.874;2022-11-18T16:21:46;6.82;;;3.42;;
40176;SDS011;31511;46.176;9.874;2022-11-18T16:24:14;7.88;;;3.10;;
40176;SDS011;31511;46.176;9.874;2022-11-18T16:26:41;7.15;;;2.75;;
40176;SDS011;31511;46.176;9.874;2022-11-18T16:29:09;5.72;;;3.65;;
40176;SDS011;31511;46.176;9.874;2022-11-18T16:31:36;4.90;;;3.25;;
40176;SDS011;31511;46.176;9.874;2022-11-18T16:36:33;6.95;;;4.28;;
40176;SDS011;31511;46.176;9.874;2022-11-18T16:39:09;11.77;;;6.25;;
40176;SDS011;31511;46.176;9.874;2022-11-18T16:41:36;15.05;;;6.07;;
40176;SDS011;31511;46.176;9.874;2022-11-18T16:44:04;11.60;;;7.03;;
40176;SDS011;31511;46.176;9.874;2022-11-18T16:46:32;13.70;;;6.53;;
40176;SDS011;31511;46.176;9.874;2022-11-18T16:48:58;10.93;;;6.85;;